Terminal Aerodrome Forecast
Issued by NWS Wilmington, OH

Current Version | Previous Version | Graphics & Text | Print | Product List | Glossary On
Versions: 1 2 3 4 5 6 7 8 9 10 11 12 13 14 15
000
FTUS41 KILN 170500
TAFDAY
TAF
KDAY 170520Z 1706/1806 13008KT P6SM BKN250
     FM171500 19012KT P6SM BKN250
     FM180000 19007KT P6SM BKN200=

USA.gov is the U.S. government's official web portal to all federal, state and local government web resources and services.